• Join FlightAware (Why Join?)
  • Login
  • US Flag 
12:19AM EDT


 

Airport Tracker/Info


-or-


 

Live Flight TrackerFlight Track Log ✈ WBR2634 ✈ 12-Sep-2013 ✈ KBRL - KORD

Flight Track Log - Related Links

Times and Time Zones

All times are in EDT time to prevent confusion due to time zone crossing. See the WBR2634 flight status page for this flight to view local times or setup timezone preferences in your user account.

Time Position Orientation Groundspeed Altitude Reporting Facility
EDT Latitude Longitude Course Direction KTS MPH feet Rate Location/Type
05:37PM 40.8122 -91.0858 64° Northeast 115 132 2,500  Level Chicago Center
05:38PM 40.8264 -91.0478 64° Northeast 115 132 3,200 780 Climbing Chicago Center
05:39PM 40.8392 -91.0083 67° East 117 135 4,200 840 Climbing Chicago Center
05:40PM 40.8528 -90.9700 65° Northeast 116 133 5,000 720 Climbing Chicago Center
05:41PM 40.8672 -90.9331 63° Northeast 113 130 5,800 720 Climbing Chicago Center
05:42PM 40.8806 -90.8908 67° East 121 139 6,600 780 Climbing Chicago Center
05:43PM 40.8981 -90.8419 65° Northeast 123 142 7,500 780 Climbing Chicago Center
05:44PM 40.9128 -90.8003 65° Northeast 125 144 8,300 720 Climbing Chicago Center
05:45PM 40.9267 -90.7556 68° East 130 150 9,000 300 Climbing Chicago Center
05:46PM 40.9436 -90.7072 65° Northeast 143 165 9,000  Level Chicago Center
05:47PM 40.9600 -90.6550 67° East 153 176 9,000  Level Chicago Center
05:48PM 40.9781 -90.6033 65° Northeast 154 177 9,000  Level Chicago Center
05:49PM 40.9969 -90.5406 68° East 153 176 9,000  Level Chicago Center
05:50PM 41.0114 -90.4867 70° East 156 180 9,000  Level Chicago Center
05:51PM 41.0322 -90.4367 61° Northeast 155 178 9,000  Level Chicago Center
05:52PM 41.0489 -90.3858 66° East 152 175 9,000  Level Chicago Center
05:53PM 41.0642 -90.3339 69° East 151 174 9,000  Level Chicago Center
05:54PM 41.0828 -90.2819 65° Northeast 156 180 9,000  Level Chicago Center
05:55PM 41.1000 -90.2289 67° East 156 180 9,000  Level Chicago Center
05:57PM 41.1178 -90.1683 69° East 148 170 9,000  Level Chicago Center
05:58PM 41.1361 -90.1161 65° Northeast 152 175 9,100  Climbing Chicago Center
05:59PM 41.1544 -90.0633 65° Northeast 156 180 9,000 -60 Descending Chicago Center
06:00PM 41.1706 -90.0131 67° East 152 175 9,000  Level Chicago Center
06:01PM 41.1875 -89.9617 66° East 152 175 9,000  Level Chicago Center
06:02PM 41.2039 -89.9119 66° East 148 170 9,100  Climbing Chicago Center
06:03PM 41.2242 -89.8489 67° East 152 175 9,100  Level Chicago Center
06:04PM 41.2400 -89.7956 68° East 154 177 9,100  Level Chicago Center
06:05PM 41.2561 -89.7428 68° East 154 177 9,100  Level Chicago Center
06:06PM 41.2714 -89.6897 69° East 154 177 9,100 -60 Level Chicago Center
06:07PM 41.2892 -89.6394 65° Northeast 151 174 9,000  Descending Chicago Center
06:08PM 41.3064 -89.5881 66° East 151 174 9,100  Climbing Chicago Center
06:09PM 41.3269 -89.5275 66° East 150 173 9,100  Level Chicago Center
06:10PM 41.3453 -89.4767 64° Northeast 152 175 9,100  Level Chicago Center
06:11PM 41.3653 -89.4253 63° Northeast 155 178 9,100  Level Chicago Center
06:12PM 41.3806 -89.3711 69° East 156 180 9,100  Level Chicago Center
06:13PM 41.3972 -89.3189 67° East 154 177 9,100  Level Chicago Center
06:14PM 41.4117 -89.2633 71° East 157 181 9,100  Level Chicago Center
06:15PM 41.4272 -89.2103 69° East 155 178 9,100 -300 Level Chicago Center
06:16PM 41.4450 -89.1506 68° East 158 182 8,600 -540 Descending Chicago Center
06:17PM 41.4644 -89.0947 65° Northeast 163 188 8,000 -300 Descending Chicago Center
06:18PM 41.4856 -89.0319 66° East 158 182 8,000  Level Chicago Center
06:19PM 41.5017 -88.9792 68° East 155 178 8,000  Level Chicago Center
06:20PM 41.5169 -88.9275 68° East 151 174 8,000  Level Chicago Center
06:21PM 41.5325 -88.8753 68° East 152 175 8,100  Climbing Chicago Center
06:22PM 41.5500 -88.8247 65° Northeast 151 174 8,000  Descending Chicago Center
06:23PM 41.5703 -88.7639 66° East 149 171 8,100  Climbing Chicago Center
06:24PM 41.5886 -88.7117 65° Northeast 154 177 8,100  Level Chicago Center
06:26PM 41.6050 -88.6594 67° East 155 178 8,100  Level Chicago Center
06:27PM 41.6192 -88.6061 70° East 153 176 8,100 -60 Level Chicago Center
06:28PM 41.6342 -88.5539 69° East 152 175 8,000 -180 Descending Chicago Center
06:29PM 41.6542 -88.4953 65° Northeast 147 169 7,800 -360 Descending Chicago Center
06:30PM 41.6833 -88.4000 68° East 158 182 7,100 -300 Descending Chicago TRACON
06:31PM 41.7000 -88.3500 66° East 156 180 7,100 -60 Level Chicago TRACON
06:32PM 41.7000 -88.3000 90° East 157 181 7,000 -300 Descending Chicago TRACON
06:33PM 41.7019 -88.2733 84° East 159 183 6,700 -660 Descending Chicago Center
06:34PM 41.6967 -88.2061 96° East 163 188 6,000 -840 Descending Chicago Center
06:35PM 41.7183 -88.1519 62° Northeast 162 186 5,000 -780 Descending Chicago Center
06:36PM 41.7522 -88.1217 34° Northeast 153 176 4,400 -480 Descending Chicago Center
06:37PM 41.7844 -88.0908 36° Northeast 148 170 4,100 -420 Descending Chicago Center
06:38PM 41.8181 -88.0556 38° Northeast 148 170 3,600 -540 Descending Chicago Center
06:39PM 41.8506 -88.0208 39° Northeast 150 173 3,000 -660 Descending Chicago Center
06:40PM 41.8864 -87.9789 41° Northeast 147 169 2,300 -660 Descending Chicago Center
06:41PM 41.9169 -87.9433 41° Northeast 145 167 1,700 -480 Descending Chicago Center
06:42PM 41.9444 -87.9117 41° Northeast 145 167 1,300 -420 Descending Chicago Center
06:44PM 41.9667 -87.9000 37° Northeast  Level FlightAware Approximate